createdAt,value
2019-02-11T00:00:55.980Z,89.50
2019-02-11T00:03:25.470Z,89.30
2019-02-11T00:05:55.143Z,89.40
2019-02-11T00:08:24.520Z,89.20
2019-02-11T00:10:53.921Z,88.90
2019-02-11T00:13:23.294Z,88.80
2019-02-11T00:15:52.654Z,89.00
2019-02-11T00:18:22.030Z,89.10
2019-02-11T00:20:51.425Z,89.30
2019-02-11T00:23:20.720Z,89.50
2019-02-11T00:25:50.129Z,89.90
2019-02-11T00:28:19.487Z,90.00
2019-02-11T00:30:48.887Z,90.00
2019-02-11T00:33:18.263Z,90.10
2019-02-11T00:35:47.679Z,90.00
2019-02-11T00:38:17.064Z,89.90
2019-02-11T00:40:46.439Z,89.70
2019-02-11T00:43:19.092Z,90.00
2019-02-11T00:45:46.863Z,89.80
2019-02-11T00:48:16.286Z,90.00
2019-02-11T00:50:45.659Z,90.10
2019-02-11T00:53:15.065Z,90.20
2019-02-11T00:55:44.772Z,90.30
2019-02-11T00:58:14.138Z,90.50
2019-02-11T01:00:43.566Z,90.70
2019-02-11T01:03:12.933Z,90.90
2019-02-11T01:05:42.347Z,90.70
2019-02-11T01:08:11.719Z,90.60
2019-02-11T01:10:41.124Z,90.60
2019-02-11T01:13:10.511Z,90.50
2019-02-11T01:15:39.899Z,90.40
2019-02-11T01:18:09.292Z,90.20
2019-02-11T01:20:38.699Z,90.10
2019-02-11T01:23:08.085Z,90.10
2019-02-11T01:25:37.475Z,90.00
2019-02-11T01:28:06.767Z,90.00
2019-02-11T01:30:36.051Z,89.80
2019-02-11T01:33:05.379Z,89.80
2019-02-11T01:35:34.722Z,89.70
2019-02-11T01:38:04.463Z,89.80
2019-02-11T01:40:33.830Z,89.70
2019-02-11T01:43:03.130Z,89.70
2019-02-11T01:45:32.539Z,89.70
2019-02-11T01:48:01.904Z,89.60
2019-02-11T01:50:31.326Z,89.60
2019-02-11T01:53:00.699Z,89.50
2019-02-11T01:55:30.163Z,89.40
2019-02-11T01:57:59.550Z,89.30
2019-02-11T02:00:28.932Z,89.10
2019-02-11T02:02:58.335Z,89.00
2019-02-11T02:05:29.341Z,89.20
2019-02-11T02:07:58.724Z,89.40
2019-02-11T02:10:28.103Z,89.50
2019-02-11T02:12:57.470Z,89.50
2019-02-11T02:15:26.864Z,89.40
2019-02-11T02:17:56.239Z,89.00
2019-02-11T02:20:25.671Z,89.00
2019-02-11T02:22:55.052Z,88.80
2019-02-11T02:25:24.443Z,88.40
2019-02-11T02:27:53.801Z,87.70
2019-02-11T02:30:23.192Z,87.40
2019-02-11T02:32:52.587Z,86.50
2019-02-11T02:35:22.060Z,86.10
2019-02-11T02:37:51.460Z,85.30
2019-02-11T02:40:20.863Z,85.50
2019-02-11T02:42:50.227Z,85.10
2019-02-11T02:45:19.544Z,85.30
2019-02-11T02:47:48.911Z,85.60
2019-02-11T02:50:18.220Z,85.60
2019-02-11T02:52:47.635Z,85.50
2019-02-11T02:55:17.031Z,85.60
2019-02-11T02:57:46.411Z,85.20
2019-02-11T03:00:15.780Z,85.00
2019-02-11T03:02:45.192Z,84.90
2019-02-11T03:05:14.572Z,85.00
2019-02-11T03:07:43.975Z,84.60
2019-02-11T03:10:13.340Z,84.80
2019-02-11T03:12:42.833Z,84.70
2019-02-11T03:15:12.242Z,84.80
2019-02-11T03:17:41.640Z,84.80
2019-02-11T03:20:11.072Z,84.90
2019-02-11T03:22:40.438Z,85.00
2019-02-11T03:25:09.890Z,85.10
2019-02-11T03:27:39.244Z,85.10
2019-02-11T03:30:08.685Z,85.20
2019-02-11T03:32:38.165Z,85.20
2019-02-11T03:35:07.661Z,85.10
2019-02-11T03:37:37.087Z,85.10
2019-02-11T03:40:06.619Z,85.00
2019-02-11T03:42:36.009Z,84.90
2019-02-11T03:45:06.704Z,84.70
2019-02-11T03:47:36.072Z,84.60
2019-02-11T03:50:05.832Z,84.70
2019-02-11T03:52:35.240Z,84.70
2019-02-11T03:55:04.698Z,84.90
2019-02-11T03:57:34.236Z,85.10
2019-02-11T04:00:03.712Z,85.20
2019-02-11T04:02:33.068Z,85.00
2019-02-11T04:05:02.471Z,85.00
2019-02-11T04:07:31.853Z,84.70
2019-02-11T04:10:01.284Z,84.80
2019-02-11T04:12:30.635Z,84.80
2019-02-11T04:15:00.011Z,84.70
2019-02-11T04:17:29.416Z,84.50
2019-02-11T04:19:58.792Z,84.50
2019-02-11T04:22:28.201Z,84.60
2019-02-11T04:24:57.573Z,84.80
2019-02-11T04:27:26.973Z,84.90
2019-02-11T04:29:56.340Z,85.10
2019-02-11T04:32:25.713Z,85.30
2019-02-11T04:34:55.108Z,85.20
2019-02-11T04:37:24.535Z,85.20
2019-02-11T04:39:53.997Z,85.40
2019-02-11T04:42:23.368Z,85.40
2019-02-11T04:44:52.749Z,85.40
2019-02-11T04:47:22.440Z,85.40
2019-02-11T04:49:51.851Z,85.70
2019-02-11T04:52:21.167Z,85.90
2019-02-11T04:54:50.556Z,85.90
2019-02-11T04:57:19.951Z,86.20
2019-02-11T04:59:49.338Z,86.30
2019-02-11T05:02:18.720Z,86.40
2019-02-11T05:04:48.107Z,86.50
2019-02-11T05:07:17.516Z,86.90
2019-02-11T05:09:46.897Z,87.20
2019-02-11T05:12:16.304Z,87.90
2019-02-11T05:14:45.672Z,88.40
2019-02-11T05:17:15.046Z,89.10
2019-02-11T05:19:44.445Z,89.40
2019-02-11T05:22:13.817Z,89.50
2019-02-11T05:24:43.219Z,89.90
2019-02-11T05:27:12.592Z,90.10
2019-02-11T05:29:41.986Z,90.30
2019-02-11T05:32:11.380Z,90.30
2019-02-11T05:34:40.743Z,90.50
2019-02-11T05:37:10.147Z,90.50
2019-02-11T05:39:39.559Z,90.60
2019-02-11T05:42:08.879Z,90.60
2019-02-11T05:44:38.250Z,90.80
2019-02-11T05:47:07.651Z,91.00
2019-02-11T05:49:37.027Z,91.10
2019-02-11T05:52:06.427Z,91.20
2019-02-11T05:54:35.788Z,91.00
2019-02-11T05:57:05.175Z,91.20
2019-02-11T05:59:34.596Z,91.10
2019-02-11T06:02:03.967Z,91.10
2019-02-11T06:04:33.342Z,91.10
2019-02-11T06:07:02.737Z,91.10
2019-02-11T06:09:32.114Z,91.10
2019-02-11T06:12:01.511Z,91.10
2019-02-11T06:14:31.008Z,91.20
2019-02-11T06:17:00.387Z,91.20
2019-02-11T06:19:29.799Z,91.20
2019-02-11T06:21:59.180Z,91.20
2019-02-11T06:24:28.569Z,91.10
2019-02-11T06:26:57.995Z,91.20
2019-02-11T06:29:27.372Z,91.10
2019-02-11T06:31:56.782Z,91.20
2019-02-11T06:34:26.279Z,91.30
2019-02-11T06:36:55.655Z,91.20
2019-02-11T06:39:25.079Z,91.10
2019-02-11T06:41:54.474Z,91.10
2019-02-11T06:44:23.845Z,91.10
2019-02-11T06:46:53.256Z,91.20
2019-02-11T06:49:22.663Z,91.10
2019-02-11T06:51:52.398Z,91.10
2019-02-11T06:54:21.778Z,91.10
2019-02-11T06:56:51.143Z,91.00
2019-02-11T06:59:20.539Z,91.10
2019-02-11T07:01:49.952Z,91.10
2019-02-11T07:04:19.331Z,91.10
2019-02-11T07:06:48.704Z,91.10
2019-02-11T07:09:18.111Z,91.00
2019-02-11T07:11:47.482Z,91.00
2019-02-11T07:14:16.888Z,90.90
2019-02-11T07:16:46.244Z,91.00
2019-02-11T07:19:15.648Z,91.00
2019-02-11T07:21:45.023Z,90.90
2019-02-11T07:24:14.414Z,90.80
2019-02-11T07:26:43.784Z,90.80
2019-02-11T07:29:13.194Z,90.80
2019-02-11T07:31:42.561Z,90.80
2019-02-11T07:34:11.924Z,90.80
2019-02-11T07:36:41.349Z,90.70
2019-02-11T07:39:10.780Z,90.70
2019-02-11T07:41:47.355Z,90.70
2019-02-11T07:44:20.784Z,90.70
2019-02-11T07:46:58.919Z,90.70
2019-02-11T07:49:28.301Z,90.70
2019-02-11T07:51:57.709Z,90.80
2019-02-11T07:54:27.089Z,90.80
2019-02-11T07:56:56.486Z,90.90
2019-02-11T07:59:25.867Z,90.80
2019-02-11T08:01:55.396Z,90.60
2019-02-11T08:04:24.794Z,90.50
2019-02-11T08:06:54.147Z,90.50
2019-02-11T08:09:23.543Z,90.60
2019-02-11T08:11:52.927Z,90.90
2019-02-11T08:14:22.247Z,90.80
2019-02-11T08:16:51.628Z,90.90
2019-02-11T08:19:21.011Z,91.00
2019-02-11T08:21:50.307Z,91.10
2019-02-11T08:24:19.801Z,91.20
2019-02-11T08:26:49.184Z,91.30
2019-02-11T08:29:18.624Z,91.30
2019-02-11T08:31:47.965Z,91.30
2019-02-11T08:34:17.335Z,91.30
2019-02-11T08:36:46.753Z,91.30
2019-02-11T08:39:16.268Z,91.50
2019-02-11T08:41:45.704Z,91.50
2019-02-11T08:44:15.092Z,91.60
2019-02-11T08:46:44.477Z,91.50
2019-02-11T08:49:13.887Z,91.40
2019-02-11T08:51:43.271Z,91.40
2019-02-11T08:54:12.680Z,91.30
2019-02-11T08:56:42.051Z,91.20
2019-02-11T08:59:11.472Z,91.10
2019-02-11T09:01:40.869Z,91.00
2019-02-11T09:04:18.674Z,90.90
2019-02-11T09:06:41.318Z,90.80
2019-02-11T09:09:10.689Z,90.80
2019-02-11T09:11:40.099Z,90.90
2019-02-11T09:14:09.456Z,90.90
2019-02-11T09:16:38.879Z,90.70
2019-02-11T09:19:08.272Z,90.70
2019-02-11T09:21:37.632Z,90.60
2019-02-11T09:24:07.031Z,90.50
2019-02-11T09:26:36.413Z,90.30
2019-02-11T09:29:05.804Z,90.30
2019-02-11T09:31:35.199Z,90.20
2019-02-11T09:34:04.599Z,90.20
2019-02-11T09:36:33.967Z,90.40
2019-02-11T09:39:04.367Z,90.40
2019-02-11T09:41:33.799Z,90.20
2019-02-11T09:44:03.176Z,90.30
2019-02-11T09:46:32.584Z,90.50
2019-02-11T09:49:01.976Z,90.40
2019-02-11T09:51:32.051Z,90.40
2019-02-11T09:54:01.708Z,90.50
2019-02-11T09:56:31.081Z,90.40
2019-02-11T09:59:00.483Z,90.40
2019-02-11T10:01:29.852Z,90.40
2019-02-11T10:03:59.267Z,90.50
2019-02-11T10:06:28.636Z,90.40
2019-02-11T10:08:58.064Z,90.30
2019-02-11T10:11:27.443Z,90.20
2019-02-11T10:13:56.839Z,90.20
2019-02-11T10:16:26.231Z,90.00
2019-02-11T10:18:55.641Z,90.00
2019-02-11T10:21:25.022Z,90.10
2019-02-11T10:23:54.420Z,89.80
2019-02-11T10:26:23.800Z,89.50
2019-02-11T10:28:53.206Z,89.10
2019-02-11T10:31:22.595Z,89.10
2019-02-11T10:33:51.960Z,88.70
2019-02-11T10:36:21.488Z,88.20
2019-02-11T10:38:50.871Z,88.20
2019-02-11T10:41:20.290Z,87.20
2019-02-11T10:43:49.739Z,87.10
2019-02-11T10:46:20.958Z,87.60
2019-02-11T10:48:50.076Z,87.10
2019-02-11T10:51:19.678Z,87.00
2019-02-11T10:53:49.075Z,87.40
2019-02-11T10:56:18.375Z,87.30
2019-02-11T10:58:47.784Z,87.00
2019-02-11T11:01:17.224Z,86.40
2019-02-11T11:03:46.960Z,86.70
2019-02-11T11:06:16.349Z,86.10
2019-02-11T11:08:45.725Z,86.60
2019-02-11T11:11:15.119Z,86.70
2019-02-11T11:13:44.533Z,86.00
2019-02-11T11:16:13.903Z,86.10
2019-02-11T11:18:43.303Z,86.30
2019-02-11T11:21:14.408Z,85.80
2019-02-11T11:23:43.807Z,86.20
2019-02-11T11:26:13.180Z,86.20
2019-02-11T11:28:42.579Z,86.00
2019-02-11T11:31:12.054Z,85.90
2019-02-11T11:33:41.464Z,85.70
2019-02-11T11:36:10.828Z,85.50
2019-02-11T11:38:40.240Z,85.10
2019-02-11T11:41:09.681Z,85.10
2019-02-11T11:43:39.197Z,85.40
2019-02-11T11:46:08.627Z,85.60
2019-02-11T11:48:37.951Z,85.70
2019-02-11T11:51:07.396Z,85.40
2019-02-11T11:53:36.775Z,86.30
2019-02-11T11:56:06.198Z,86.70
2019-02-11T11:58:35.579Z,86.60
2019-02-11T12:01:05.301Z,86.30
2019-02-11T12:03:34.678Z,86.00
2019-02-11T12:06:04.801Z,85.70
2019-02-11T12:08:34.243Z,86.10
2019-02-11T12:11:03.762Z,85.60
2019-02-11T12:13:33.136Z,85.80
2019-02-11T12:16:02.519Z,85.30
2019-02-11T12:18:31.930Z,85.30
2019-02-11T12:21:01.314Z,85.10
2019-02-11T12:23:30.723Z,85.30
2019-02-11T12:26:00.119Z,84.70
2019-02-11T12:28:29.525Z,84.80
2019-02-11T12:30:58.879Z,84.40
2019-02-11T12:33:28.280Z,83.90
2019-02-11T12:35:57.644Z,83.50
2019-02-11T12:38:27.046Z,83.70
2019-02-11T12:40:56.423Z,83.30
2019-02-11T12:43:25.853Z,82.80
2019-02-11T12:45:55.259Z,82.50
2019-02-11T12:48:24.625Z,82.90
2019-02-11T12:50:54.054Z,82.20
2019-02-11T12:53:23.386Z,81.90
2019-02-11T12:55:52.893Z,81.70
2019-02-11T12:58:22.266Z,81.40
2019-02-11T13:00:51.675Z,81.40
2019-02-11T13:03:21.087Z,81.20
2019-02-11T13:05:50.447Z,80.80
2019-02-11T13:08:19.935Z,80.60
2019-02-11T13:10:49.314Z,80.70
2019-02-11T13:13:18.720Z,80.00
2019-02-11T13:16:01.285Z,79.80
2019-02-11T13:18:19.372Z,80.00
2019-02-11T13:20:48.822Z,79.00
2019-02-11T13:23:18.216Z,79.10
2019-02-11T13:25:47.591Z,79.20
2019-02-11T13:28:16.994Z,78.60
2019-02-11T13:30:46.349Z,78.50
2019-02-11T13:33:15.807Z,78.50
2019-02-11T13:35:45.200Z,78.30
2019-02-11T13:38:14.861Z,78.30
2019-02-11T13:40:44.251Z,77.80
2019-02-11T13:43:13.716Z,76.50
2019-02-11T13:45:43.151Z,76.30
2019-02-11T13:48:12.627Z,75.90
2019-02-11T13:50:42.598Z,76.40
2019-02-11T13:53:11.939Z,76.00
2019-02-11T13:55:41.329Z,75.90
2019-02-11T13:58:10.752Z,75.60
2019-02-11T14:00:41.379Z,75.40
2019-02-11T14:03:11.049Z,74.80
2019-02-11T14:05:40.445Z,74.00
2019-02-11T14:08:09.834Z,74.80
2019-02-11T14:10:39.240Z,73.90
2019-02-11T14:13:08.875Z,74.60
2019-02-11T14:15:38.662Z,74.50
2019-02-11T14:18:14.908Z,73.90
2019-02-11T14:20:43.720Z,73.60
2019-02-11T14:23:13.283Z,74.00
2019-02-11T14:25:46.658Z,73.50
2019-02-11T14:28:13.679Z,73.70
2019-02-11T14:30:43.244Z,73.20
2019-02-11T14:33:12.660Z,72.80
2019-02-11T14:35:42.049Z,72.50
2019-02-11T14:38:11.457Z,71.90
2019-02-11T14:40:40.826Z,71.30
2019-02-11T14:43:10.355Z,71.70
2019-02-11T14:45:39.763Z,71.30
2019-02-11T14:48:25.738Z,71.20
2019-02-11T14:50:40.205Z,70.80
2019-02-11T14:53:09.603Z,71.30
2019-02-11T14:55:39.007Z,71.40
2019-02-11T14:58:08.437Z,70.70
2019-02-11T15:00:37.767Z,70.30
2019-02-11T15:03:07.218Z,70.20
2019-02-11T15:05:36.518Z,71.10
2019-02-11T15:08:05.939Z,71.00
2019-02-11T15:10:35.338Z,70.60
2019-02-11T15:13:04.764Z,70.40
2019-02-11T15:15:34.132Z,70.50
2019-02-11T15:18:03.541Z,70.00
2019-02-11T15:20:32.921Z,70.00
2019-02-11T15:23:02.303Z,70.40
2019-02-11T15:25:31.800Z,70.00
2019-02-11T15:28:01.192Z,69.60
2019-02-11T15:30:30.595Z,69.40
2019-02-11T15:32:59.999Z,70.00
2019-02-11T15:35:29.399Z,70.60
2019-02-11T15:37:58.827Z,70.70
2019-02-11T15:40:28.208Z,70.50
2019-02-11T15:42:57.598Z,70.20
2019-02-11T15:45:27.052Z,70.60
2019-02-11T15:47:56.433Z,70.90
2019-02-11T15:50:25.844Z,70.20
2019-02-11T15:52:55.215Z,70.50
2019-02-11T15:55:24.591Z,70.60
2019-02-11T15:57:53.976Z,71.50
2019-02-11T16:00:23.380Z,70.80
2019-02-11T16:02:52.774Z,70.70
2019-02-11T16:05:22.260Z,71.30
2019-02-11T16:07:51.671Z,71.50
2019-02-11T16:10:22.935Z,71.60
2019-02-11T16:12:52.315Z,71.90
2019-02-11T16:15:21.714Z,72.20
2019-02-11T16:17:51.233Z,72.30
2019-02-11T16:20:20.994Z,73.10
2019-02-11T16:22:50.372Z,72.60
2019-02-11T16:25:19.747Z,72.50
2019-02-11T16:27:49.128Z,72.50
2019-02-11T16:30:18.981Z,72.50
2019-02-11T16:32:49.806Z,72.70
2019-02-11T16:35:19.228Z,72.70
2019-02-11T16:37:48.614Z,72.90
2019-02-11T16:40:20.177Z,73.00
2019-02-11T16:42:49.571Z,73.10
2019-02-11T16:45:18.959Z,73.30
2019-02-11T16:47:48.340Z,73.20
2019-02-11T16:50:17.768Z,73.40
2019-02-11T16:52:47.144Z,73.60
2019-02-11T16:55:16.514Z,73.60
2019-02-11T16:57:45.971Z,73.60
2019-02-11T17:00:16.769Z,73.70
2019-02-11T17:02:46.277Z,73.40
2019-02-11T17:05:15.741Z,73.50
2019-02-11T17:07:45.122Z,73.60
2019-02-11T17:10:14.570Z,73.60
2019-02-11T17:12:43.944Z,73.30
2019-02-11T17:15:15.089Z,73.40
2019-02-11T17:17:44.452Z,73.20
2019-02-11T17:20:14.465Z,73.00
2019-02-11T17:22:43.867Z,73.00
2019-02-11T17:25:13.496Z,73.30
2019-02-11T17:27:42.903Z,73.20
2019-02-11T17:30:14.839Z,73.20
2019-02-11T17:32:44.258Z,73.30
2019-02-11T17:35:13.659Z,73.20
2019-02-11T17:37:43.035Z,73.10
2019-02-11T17:40:13.131Z,73.30
2019-02-11T17:42:42.502Z,73.20
2019-02-11T17:45:20.531Z,73.40
2019-02-11T17:47:49.956Z,73.50
2019-02-11T17:50:19.356Z,73.50
2019-02-11T17:52:49.030Z,73.30
2019-02-11T17:55:18.429Z,73.30
2019-02-11T17:57:48.144Z,73.40
2019-02-11T18:00:26.328Z,73.30
2019-02-11T18:02:55.761Z,73.30
2019-02-11T18:05:25.195Z,73.30
2019-02-11T18:07:54.564Z,73.20
2019-02-11T18:10:23.978Z,73.20
2019-02-11T18:12:53.347Z,73.20
2019-02-11T18:15:22.798Z,73.30
2019-02-11T18:17:52.172Z,73.30
2019-02-11T18:20:21.548Z,73.90
2019-02-11T18:22:50.977Z,73.20
2019-02-11T18:25:20.384Z,73.60
2019-02-11T18:27:49.906Z,73.20
2019-02-11T18:30:19.393Z,73.40
2019-02-11T18:32:48.752Z,73.50
2019-02-11T18:35:18.205Z,73.70
2019-02-11T18:37:47.563Z,73.50
2019-02-11T18:40:16.971Z,73.80
2019-02-11T18:42:46.354Z,74.20
2019-02-11T18:45:15.914Z,74.30
2019-02-11T18:47:45.403Z,74.60
2019-02-11T18:50:14.927Z,75.20
2019-02-11T18:52:44.330Z,75.80
2019-02-11T18:55:13.890Z,76.10
2019-02-11T18:57:43.709Z,76.30
2019-02-11T19:00:15.390Z,76.50
2019-02-11T19:02:44.981Z,76.40
2019-02-11T19:05:14.912Z,76.60
2019-02-11T19:07:44.415Z,76.60
2019-02-11T19:10:13.975Z,76.80
2019-02-11T19:12:43.367Z,76.90
2019-02-11T19:15:13.472Z,77.00
2019-02-11T19:17:42.879Z,76.90
2019-02-11T19:20:13.140Z,77.10
2019-02-11T19:22:42.527Z,77.20
2019-02-11T19:25:12.079Z,77.30
2019-02-11T19:27:41.523Z,77.50
2019-02-11T19:30:13.684Z,77.70
2019-02-11T19:32:43.070Z,77.70
2019-02-11T19:35:12.516Z,78.00
2019-02-11T19:37:41.893Z,78.00
2019-02-11T19:40:12.416Z,78.10
2019-02-11T19:42:41.825Z,78.10
2019-02-11T19:45:13.142Z,78.20
2019-02-11T19:47:42.560Z,78.30
2019-02-11T19:50:13.172Z,78.60
2019-02-11T19:52:42.607Z,78.90
2019-02-11T19:55:12.463Z,79.00
2019-02-11T19:57:41.831Z,79.30
2019-02-11T20:00:19.528Z,79.30
2019-02-11T20:02:49.093Z,79.30
2019-02-11T20:05:18.663Z,79.30
2019-02-11T20:07:48.112Z,79.50
2019-02-11T20:10:17.694Z,79.50
2019-02-11T20:12:47.166Z,79.50
2019-02-11T20:15:18.223Z,79.60
2019-02-11T20:17:47.712Z,79.80
2019-02-11T20:20:18.964Z,80.10
2019-02-11T20:22:48.344Z,80.50
2019-02-11T20:25:17.739Z,80.90
2019-02-11T20:27:47.106Z,80.80
2019-02-11T20:30:18.189Z,81.20
2019-02-11T20:32:47.561Z,81.70
2019-02-11T20:35:16.927Z,81.80
2019-02-11T20:37:46.331Z,82.10
2019-02-11T20:40:17.519Z,82.00
2019-02-11T20:42:46.965Z,82.10
2019-02-11T20:45:18.953Z,82.60
2019-02-11T20:47:48.387Z,83.10
2019-02-11T20:50:17.785Z,83.90
2019-02-11T20:52:47.164Z,84.30
2019-02-11T20:55:16.581Z,85.00
2019-02-11T20:57:46.003Z,86.00
2019-02-11T21:00:17.866Z,86.50
2019-02-11T21:02:47.242Z,87.30
2019-02-11T21:05:16.644Z,87.30
2019-02-11T21:07:46.250Z,87.60
2019-02-11T21:10:16.249Z,88.10
2019-02-11T21:12:45.635Z,88.10
2019-02-11T21:15:15.488Z,88.30
2019-02-11T21:17:44.880Z,88.00
2019-02-11T21:20:22.597Z,88.20
2019-02-11T21:22:52.247Z,88.20
2019-02-11T21:25:21.675Z,88.70
2019-02-11T21:27:51.057Z,88.30
2019-02-11T21:30:20.463Z,88.20
2019-02-11T21:32:49.838Z,88.20
2019-02-11T21:35:19.243Z,87.90
2019-02-11T21:37:48.600Z,87.80
2019-02-11T21:40:17.984Z,88.00
2019-02-11T21:42:47.380Z,87.70
2019-02-11T21:45:16.765Z,87.80
2019-02-11T21:47:46.191Z,87.90
2019-02-11T21:50:15.900Z,87.90
2019-02-11T21:52:45.271Z,87.70
2019-02-11T21:55:14.919Z,87.70
2019-02-11T21:57:44.285Z,87.80
2019-02-11T22:00:16.195Z,87.90
2019-02-11T22:02:45.560Z,88.10
2019-02-11T22:05:15.064Z,88.10
2019-02-11T22:07:44.465Z,88.20
2019-02-11T22:10:14.607Z,88.40
2019-02-11T22:12:44.017Z,88.40
2019-02-11T22:15:14.211Z,88.50
2019-02-11T22:17:43.635Z,88.80
2019-02-11T22:20:15.075Z,88.90
2019-02-11T22:22:44.508Z,89.00
2019-02-11T22:25:14.016Z,89.10
2019-02-11T22:27:43.409Z,89.10
2019-02-11T22:30:14.976Z,89.30
2019-02-11T22:32:44.364Z,89.20
2019-02-11T22:35:13.742Z,88.80
2019-02-11T22:37:43.151Z,89.00
2019-02-11T22:40:13.102Z,88.20
2019-02-11T22:42:42.548Z,88.10
2019-02-11T22:45:14.394Z,87.80
2019-02-11T22:47:43.767Z,88.10
2019-02-11T22:50:13.251Z,88.00
2019-02-11T22:52:42.680Z,88.10
2019-02-11T22:55:12.335Z,88.20
2019-02-11T22:57:41.711Z,88.00
2019-02-11T23:00:53.060Z,87.80
2019-02-11T23:03:22.425Z,87.70
2019-02-11T23:05:51.800Z,87.70
2019-02-11T23:08:21.197Z,87.50
2019-02-11T23:10:50.601Z,87.40
2019-02-11T23:13:19.976Z,87.50
2019-02-11T23:15:49.379Z,87.70
2019-02-11T23:18:18.780Z,87.70
2019-02-11T23:20:52.090Z,87.90
2019-02-11T23:23:19.205Z,88.00
2019-02-11T23:25:48.579Z,88.20
2019-02-11T23:28:17.891Z,88.40
2019-02-11T23:30:47.282Z,88.40
2019-02-11T23:33:16.656Z,88.50
2019-02-11T23:35:46.044Z,88.70
2019-02-11T23:38:15.439Z,88.70
2019-02-11T23:40:44.828Z,88.90
2019-02-11T23:43:14.197Z,88.80
2019-02-11T23:45:44.244Z,89.00
2019-02-11T23:48:13.663Z,89.10
2019-02-11T23:50:43.083Z,89.20
2019-02-11T23:53:12.500Z,89.60
2019-02-11T23:55:41.893Z,89.60
2019-02-11T23:58:11.316Z,90.00
